Hovedside
METAR-TAF:

METAR-TAF

Lufthavner :

Båtsfjord lufthavn

Båtsfjord, Norge

breddegrad: 70-38N, lengdegrad: 029-44E, høyde over havet: 10 m

Gjeldene værobservasjon

Denne rapporten ble laget for 49 minutter siden, klokken 11:50 UTC
Vind 13 kt fra Nordøst
Temperatur -1°C
Luftfuktighet 93%
Trykk 977 hPa
Sikt: 2500 m
lette snøbyger

METAR: ENBS 241150Z 04013KT 2500 -SHSN VV014 M01/M02 Q0977

Tid: 13:39 (12:39 UTC)


TAF: fraværende

Værobservasjoner og værvarsel for over 4000 flyplasser (METAR- og TAF-rapporter).

Tilgjengelige stasjoner er representert av de røde og gule prikkene på kartet.

Hold musepekeren over prikken for å se navnet på stasjonen.

Klikk så for å se værobservasjoner og -varsler.

For å forandre kartet kan du klikke på den grønne knappen med svart kryss for å zoome inn, på den grønne knappen med strek for å zoome ut, eller på de grønne pilene for å se tilstøtende kart.


METAR-TAF: